createdAt,value
2018-11-20T00:00:15.783Z,45.12
2018-11-20T00:01:15.793Z,45.10
2018-11-20T00:02:15.801Z,45.39
2018-11-20T00:03:15.801Z,45.20
2018-11-20T00:04:15.799Z,45.58
2018-11-20T00:05:15.826Z,45.51
2018-11-20T00:06:15.803Z,45.70
2018-11-20T00:07:15.821Z,45.48
2018-11-20T00:08:15.814Z,45.68
2018-11-20T00:09:15.833Z,45.58
2018-11-20T00:10:15.833Z,45.58
2018-11-20T00:11:15.839Z,45.58
2018-11-20T00:12:15.855Z,45.68
2018-11-20T00:13:15.849Z,45.68
2018-11-20T00:14:15.977Z,45.58
2018-11-20T00:15:15.859Z,45.48
2018-11-20T00:16:15.857Z,45.68
2018-11-20T00:17:15.876Z,45.68
2018-11-20T00:18:15.874Z,45.77
2018-11-20T00:19:15.879Z,45.48
2018-11-20T00:20:15.886Z,45.58
2018-11-20T00:21:15.887Z,45.58
2018-11-20T00:22:16.761Z,45.68
2018-11-20T00:23:15.896Z,45.97
2018-11-20T00:24:15.933Z,45.68
2018-11-20T00:25:15.909Z,45.97
2018-11-20T00:26:15.917Z,45.97
2018-11-20T00:27:15.922Z,45.87
2018-11-20T00:28:15.938Z,45.87
2018-11-20T00:29:15.943Z,45.87
2018-11-20T00:30:15.931Z,45.58
2018-11-20T00:31:15.939Z,45.68
2018-11-20T00:32:15.963Z,45.97
2018-11-20T00:33:15.950Z,45.68
2018-11-20T00:34:15.961Z,45.68
2018-11-20T00:35:15.959Z,45.77
2018-11-20T00:36:15.973Z,45.97
2018-11-20T00:37:15.968Z,46.15
2018-11-20T00:38:15.987Z,45.87
2018-11-20T00:39:15.976Z,46.15
2018-11-20T00:40:15.996Z,46.06
2018-11-20T00:41:15.989Z,45.97
2018-11-20T00:42:16.022Z,46.45
2018-11-20T00:43:16.005Z,46.15
2018-11-20T00:44:16.002Z,45.97
2018-11-20T00:45:16.008Z,46.25
2018-11-20T00:46:16.019Z,46.25
2018-11-20T00:47:16.025Z,46.45
2018-11-20T00:48:16.029Z,46.35
2018-11-20T00:49:16.037Z,46.55
2018-11-20T00:50:16.034Z,46.45
2018-11-20T00:51:16.037Z,46.55
2018-11-20T00:52:16.044Z,46.55
2018-11-20T00:53:16.047Z,46.35
2018-11-20T00:54:16.052Z,46.64
2018-11-20T00:55:16.058Z,46.64
2018-11-20T00:56:16.057Z,46.73
2018-11-20T00:57:16.064Z,46.35
2018-11-20T00:58:16.070Z,46.45
2018-11-20T00:59:16.074Z,46.35
2018-11-20T01:00:16.076Z,46.25
2018-11-20T01:01:16.103Z,46.35
2018-11-20T01:02:16.290Z,45.97
2018-11-20T01:03:16.097Z,46.55
2018-11-20T01:04:16.101Z,46.55
2018-11-20T01:05:16.102Z,45.87
2018-11-20T01:06:16.110Z,45.68
2018-11-20T01:07:16.115Z,45.97
2018-11-20T01:08:16.124Z,45.58
2018-11-20T01:09:16.121Z,45.87
2018-11-20T01:10:16.132Z,45.68
2018-11-20T01:11:16.139Z,45.87
2018-11-20T01:12:16.145Z,46.06
2018-11-20T01:13:16.147Z,45.68
2018-11-20T01:14:16.148Z,45.97
2018-11-20T01:15:16.151Z,45.87
2018-11-20T01:16:16.162Z,46.06
2018-11-20T01:17:16.160Z,46.25
2018-11-20T01:18:16.168Z,46.35
2018-11-20T01:19:16.172Z,46.35
2018-11-20T01:20:16.178Z,46.35
2018-11-20T01:21:16.178Z,46.45
2018-11-20T01:22:16.190Z,46.35
2018-11-20T01:23:16.193Z,46.25
2018-11-20T01:24:16.197Z,46.25
2018-11-20T01:25:16.205Z,46.55
2018-11-20T01:26:16.204Z,46.45
2018-11-20T01:27:16.208Z,46.35
2018-11-20T01:28:16.214Z,46.25
2018-11-20T01:29:16.216Z,46.25
2018-11-20T01:30:16.222Z,46.55
2018-11-20T01:31:16.226Z,46.45
2018-11-20T01:32:16.239Z,46.25
2018-11-20T01:33:16.243Z,46.25
2018-11-20T01:34:16.242Z,46.35
2018-11-20T01:35:16.247Z,46.25
2018-11-20T01:36:16.256Z,46.25
2018-11-20T01:37:16.259Z,46.45
2018-11-20T01:38:16.263Z,46.25
2018-11-20T01:39:16.265Z,46.35
2018-11-20T01:40:16.273Z,46.45
2018-11-20T01:41:16.275Z,46.45
2018-11-20T01:42:16.279Z,46.45
2018-11-20T01:43:16.291Z,46.73
2018-11-20T01:44:16.293Z,46.73
2018-11-20T01:45:16.301Z,46.64
2018-11-20T01:46:16.299Z,46.73
2018-11-20T01:47:16.304Z,46.73
2018-11-20T01:48:16.309Z,46.73
2018-11-20T01:49:16.317Z,46.64
2018-11-20T01:50:16.323Z,46.73
2018-11-20T01:51:16.360Z,46.73
2018-11-20T01:52:16.340Z,46.73
2018-11-20T01:53:16.333Z,46.64
2018-11-20T01:54:16.338Z,46.64
2018-11-20T01:55:16.340Z,46.73
2018-11-20T01:56:16.348Z,46.73
2018-11-20T01:57:16.353Z,46.73
2018-11-20T01:58:16.357Z,46.64
2018-11-20T01:59:16.361Z,46.83
2018-11-20T02:00:16.364Z,46.73
2018-11-20T02:01:16.367Z,46.73
2018-11-20T02:02:16.378Z,46.45
2018-11-20T02:03:16.379Z,46.55
2018-11-20T02:04:16.443Z,46.73
2018-11-20T02:05:16.395Z,46.45
2018-11-20T02:06:16.393Z,46.73
2018-11-20T02:07:16.404Z,46.45
2018-11-20T02:08:16.408Z,46.73
2018-11-20T02:09:16.417Z,46.64
2018-11-20T02:10:16.427Z,46.73
2018-11-20T02:11:16.417Z,46.73
2018-11-20T02:12:16.425Z,46.73
2018-11-20T02:13:16.429Z,46.64
2018-11-20T02:14:16.436Z,46.35
2018-11-20T02:15:16.445Z,46.45
2018-11-20T02:16:16.445Z,46.45
2018-11-20T02:17:16.439Z,46.55
2018-11-20T02:18:16.462Z,46.35
2018-11-20T02:19:16.457Z,46.45
2018-11-20T02:20:16.467Z,46.55
2018-11-20T02:21:16.468Z,46.25
2018-11-20T02:22:16.468Z,46.83
2018-11-20T02:23:16.478Z,46.45
2018-11-20T02:24:16.486Z,46.64
2018-11-20T02:25:16.483Z,46.64
2018-11-20T02:26:16.493Z,46.64
2018-11-20T02:27:16.497Z,46.73
2018-11-20T02:28:16.510Z,46.93
2018-11-20T02:29:16.509Z,46.64
2018-11-20T02:30:16.511Z,46.64
2018-11-20T02:31:16.519Z,46.73
2018-11-20T02:32:16.522Z,46.93
2018-11-20T02:33:16.524Z,46.73
2018-11-20T02:34:16.527Z,46.83
2018-11-20T02:35:16.533Z,47.03
2018-11-20T02:36:16.540Z,46.73
2018-11-20T02:37:16.549Z,47.03
2018-11-20T02:38:16.549Z,46.71
2018-11-20T02:39:16.549Z,46.73
2018-11-20T02:40:16.557Z,46.73
2018-11-20T02:41:16.564Z,46.83
2018-11-20T02:42:16.569Z,46.71
2018-11-20T02:43:16.571Z,46.73
2018-11-20T02:44:16.577Z,46.71
2018-11-20T02:45:16.581Z,46.73
2018-11-20T02:46:16.587Z,46.73
2018-11-20T02:47:16.585Z,46.73
2018-11-20T02:48:16.597Z,46.73
2018-11-20T02:49:16.601Z,47.03
2018-11-20T02:50:16.604Z,47.03
2018-11-20T02:51:16.624Z,46.64
2018-11-20T02:52:16.601Z,46.73
2018-11-20T02:53:16.617Z,46.93
2018-11-20T02:54:16.625Z,46.93
2018-11-20T02:55:16.629Z,47.12
2018-11-20T02:56:16.635Z,46.93
2018-11-20T02:57:16.639Z,46.81
2018-11-20T02:58:16.641Z,46.83
2018-11-20T02:59:16.643Z,46.93
2018-11-20T03:00:16.652Z,46.83
2018-11-20T03:01:16.652Z,46.73
2018-11-20T03:02:16.661Z,46.93
2018-11-20T03:03:16.665Z,46.93
2018-11-20T03:04:16.667Z,46.91
2018-11-20T03:05:16.674Z,46.83
2018-11-20T03:06:16.678Z,46.93
2018-11-20T03:07:16.679Z,46.93
2018-11-20T03:08:16.691Z,46.93
2018-11-20T03:09:16.700Z,46.64
2018-11-20T03:10:16.699Z,46.55
2018-11-20T03:11:16.704Z,46.73
2018-11-20T03:12:16.706Z,46.52
2018-11-20T03:13:16.710Z,46.64
2018-11-20T03:14:16.714Z,46.62
2018-11-20T03:15:16.722Z,47.03
2018-11-20T03:16:16.728Z,46.93
2018-11-20T03:17:16.728Z,46.93
2018-11-20T03:18:16.736Z,46.93
2018-11-20T03:19:16.745Z,47.03
2018-11-20T03:20:16.739Z,47.00
2018-11-20T03:21:16.749Z,46.81
2018-11-20T03:22:16.765Z,46.93
2018-11-20T03:23:16.759Z,46.83
2018-11-20T03:24:16.765Z,46.52
2018-11-20T03:25:16.773Z,47.03
2018-11-20T03:26:16.770Z,47.00
2018-11-20T03:27:16.776Z,47.00
2018-11-20T03:28:16.779Z,46.93
2018-11-20T03:29:16.789Z,46.52
2018-11-20T03:30:16.791Z,47.00
2018-11-20T03:31:16.807Z,46.55
2018-11-20T03:32:16.797Z,46.81
2018-11-20T03:33:16.805Z,46.55
2018-11-20T03:34:16.802Z,46.52
2018-11-20T03:35:16.813Z,46.52
2018-11-20T03:36:16.951Z,46.64
2018-11-20T03:37:16.827Z,46.83
2018-11-20T03:38:16.831Z,46.83
2018-11-20T03:39:16.833Z,46.81
2018-11-20T03:40:16.839Z,46.62
2018-11-20T03:41:16.835Z,46.64
2018-11-20T03:42:16.849Z,46.71
2018-11-20T03:43:16.851Z,46.93
2018-11-20T03:44:16.849Z,46.73
2018-11-20T03:45:16.860Z,46.73
2018-11-20T03:46:16.863Z,46.62
2018-11-20T03:47:16.879Z,46.62
2018-11-20T03:48:16.880Z,46.73
2018-11-20T03:49:16.877Z,46.91
2018-11-20T03:50:16.881Z,47.03
2018-11-20T03:51:16.893Z,47.10
2018-11-20T03:52:16.892Z,47.03
2018-11-20T03:53:16.898Z,47.00
2018-11-20T03:54:16.900Z,47.10
2018-11-20T03:55:16.908Z,46.91
2018-11-20T03:56:16.908Z,47.19
2018-11-20T03:57:16.915Z,46.81
2018-11-20T03:58:16.919Z,47.22
2018-11-20T03:59:16.923Z,46.91
2018-11-20T04:00:16.926Z,46.91
2018-11-20T04:01:16.929Z,47.00
2018-11-20T04:02:16.940Z,46.91
2018-11-20T04:03:16.949Z,46.91
2018-11-20T04:04:16.946Z,47.00
2018-11-20T04:05:16.949Z,47.00
2018-11-20T04:06:16.953Z,47.00
2018-11-20T04:07:16.963Z,47.19
2018-11-20T04:08:16.963Z,47.22
2018-11-20T04:09:16.973Z,47.19
2018-11-20T04:10:16.977Z,47.00
2018-11-20T04:11:16.977Z,47.19
2018-11-20T04:12:16.989Z,47.22
2018-11-20T04:13:16.994Z,47.19
2018-11-20T04:14:16.997Z,47.19
2018-11-20T04:15:16.996Z,47.19
2018-11-20T04:16:17.005Z,47.19
2018-11-20T04:17:17.001Z,47.19
2018-11-20T04:18:17.009Z,47.19
2018-11-20T04:19:17.013Z,47.19
2018-11-20T04:20:17.019Z,47.00
2018-11-20T04:21:17.026Z,47.29
2018-11-20T04:22:17.030Z,47.10
2018-11-20T04:23:17.038Z,47.10
2018-11-20T04:24:17.057Z,47.19
2018-11-20T04:25:17.041Z,47.19
2018-11-20T04:26:17.049Z,47.19
2018-11-20T04:27:17.051Z,47.19
2018-11-20T04:28:17.057Z,47.19
2018-11-20T04:29:17.060Z,47.29
2018-11-20T04:30:17.060Z,47.29
2018-11-20T04:31:17.070Z,47.10
2018-11-20T04:32:17.073Z,47.19
2018-11-20T04:33:17.080Z,47.19
2018-11-20T04:34:17.072Z,47.10
2018-11-20T04:35:17.088Z,47.29
2018-11-20T04:36:17.093Z,47.10
2018-11-20T04:37:17.103Z,47.29
2018-11-20T04:38:17.105Z,47.19
2018-11-20T04:39:17.108Z,47.29
2018-11-20T04:40:17.106Z,47.29
2018-11-20T04:41:17.190Z,47.29
2018-11-20T04:42:17.114Z,47.29
2018-11-20T04:43:17.128Z,47.19
2018-11-20T04:44:17.127Z,47.19
2018-11-20T04:45:17.140Z,47.19
2018-11-20T04:46:17.140Z,47.29
2018-11-20T04:47:17.142Z,47.29
2018-11-20T04:48:17.150Z,47.10
2018-11-20T04:49:17.148Z,47.29
2018-11-20T04:50:17.157Z,47.29
2018-11-20T04:51:17.158Z,47.39
2018-11-20T04:52:17.166Z,47.19
2018-11-20T04:53:17.168Z,47.58
2018-11-20T04:54:17.178Z,47.58
2018-11-20T04:55:17.181Z,47.00
2018-11-20T04:56:17.184Z,47.19
2018-11-20T04:57:17.188Z,47.00
2018-11-20T04:58:17.190Z,47.00
2018-11-20T04:59:17.196Z,47.19
2018-11-20T05:00:17.205Z,47.19
2018-11-20T05:01:17.202Z,47.39
2018-11-20T05:02:17.204Z,47.00
2018-11-20T05:03:17.214Z,47.49
2018-11-20T05:04:17.218Z,47.49
2018-11-20T05:05:17.224Z,47.29
2018-11-20T05:06:17.228Z,47.39
2018-11-20T05:07:17.233Z,47.10
2018-11-20T05:08:17.235Z,46.91
2018-11-20T05:09:17.243Z,46.91
2018-11-20T05:10:17.250Z,47.10
2018-11-20T05:11:17.252Z,47.19
2018-11-20T05:12:17.248Z,47.49
2018-11-20T05:13:17.321Z,47.58
2018-11-20T05:14:17.258Z,47.19
2018-11-20T05:15:17.266Z,47.29
2018-11-20T05:16:17.269Z,47.19
2018-11-20T05:17:17.273Z,47.29
2018-11-20T05:18:17.286Z,47.19
2018-11-20T05:19:17.284Z,47.39
2018-11-20T05:20:17.288Z,47.29
2018-11-20T05:21:17.298Z,47.19
2018-11-20T05:22:17.305Z,47.29
2018-11-20T05:23:17.302Z,47.29
2018-11-20T05:24:17.352Z,47.19
2018-11-20T05:25:17.312Z,47.29
2018-11-20T05:26:17.317Z,47.58
2018-11-20T05:27:17.326Z,47.29
2018-11-20T05:28:17.329Z,47.29
2018-11-20T05:29:17.329Z,47.19
2018-11-20T05:30:17.332Z,47.29
2018-11-20T05:31:17.344Z,47.49
2018-11-20T05:32:17.346Z,47.29
2018-11-20T05:33:17.349Z,47.29
2018-11-20T05:34:17.353Z,47.49
2018-11-20T05:35:17.355Z,47.29
2018-11-20T05:36:17.365Z,47.39
2018-11-20T05:37:17.365Z,47.49
2018-11-20T05:38:17.375Z,47.29
2018-11-20T05:39:17.378Z,47.39
2018-11-20T05:40:17.444Z,47.29
2018-11-20T05:41:17.384Z,47.58
2018-11-20T05:42:17.386Z,47.19
2018-11-20T05:43:17.391Z,47.29
2018-11-20T05:44:17.395Z,47.39
2018-11-20T05:45:17.404Z,47.49
2018-11-20T05:46:17.409Z,47.39
2018-11-20T05:47:17.407Z,47.29
2018-11-20T05:48:17.423Z,47.29
2018-11-20T05:49:17.419Z,47.39
2018-11-20T05:50:17.431Z,47.39
2018-11-20T05:51:17.429Z,47.58
2018-11-20T05:52:17.430Z,47.29
2018-11-20T05:53:17.437Z,47.29
2018-11-20T05:54:17.444Z,47.29
2018-11-20T05:55:17.445Z,47.39
2018-11-20T05:56:17.451Z,47.19
2018-11-20T05:57:17.455Z,47.00
2018-11-20T05:58:17.456Z,47.19
2018-11-20T05:59:17.465Z,47.19
2018-11-20T06:00:17.473Z,47.10
2018-11-20T06:01:17.473Z,47.19
2018-11-20T06:02:17.475Z,47.19
2018-11-20T06:03:17.480Z,47.19
2018-11-20T06:04:17.484Z,47.19
2018-11-20T06:05:17.493Z,46.91
2018-11-20T06:06:17.498Z,46.81
2018-11-20T06:07:17.498Z,46.52
2018-11-20T06:08:17.502Z,46.91
2018-11-20T06:09:17.512Z,46.91
2018-11-20T06:10:17.518Z,46.91
2018-11-20T06:11:17.516Z,46.81
2018-11-20T06:12:17.525Z,46.91
2018-11-20T06:13:17.529Z,46.91
2018-11-20T06:14:17.530Z,46.91
2018-11-20T06:15:17.538Z,46.81
2018-11-20T06:16:17.548Z,46.71
2018-11-20T06:17:17.544Z,46.52
2018-11-20T06:18:17.546Z,47.00
2018-11-20T06:19:17.550Z,46.81
2018-11-20T06:20:17.555Z,46.52
2018-11-20T06:21:17.560Z,46.91
2018-11-20T06:22:18.044Z,46.91
2018-11-20T06:23:17.578Z,46.91
2018-11-20T06:24:17.577Z,46.71
2018-11-20T06:25:17.576Z,46.81
2018-11-20T06:26:17.590Z,46.81
2018-11-20T06:27:17.590Z,46.71
2018-11-20T06:28:17.597Z,47.19
2018-11-20T06:29:17.726Z,47.49
2018-11-20T06:30:17.610Z,47.77
2018-11-20T06:31:17.604Z,47.39
2018-11-20T06:32:17.608Z,47.19
2018-11-20T06:33:17.616Z,47.39
2018-11-20T06:34:17.676Z,46.91
2018-11-20T06:35:17.620Z,47.29
2018-11-20T06:36:17.624Z,47.10
2018-11-20T06:37:17.634Z,47.10
2018-11-20T06:38:17.637Z,46.52
2018-11-20T06:39:17.636Z,46.81
2018-11-20T06:40:17.653Z,46.81
2018-11-20T06:41:17.703Z,46.91
2018-11-20T06:42:17.655Z,46.81
2018-11-20T06:43:17.648Z,47.00
2018-11-20T06:44:17.680Z,46.52
2018-11-20T06:45:17.660Z,46.42
2018-11-20T06:46:17.670Z,46.42
2018-11-20T06:47:17.738Z,46.52
2018-11-20T06:48:17.681Z,46.42
2018-11-20T06:49:17.672Z,46.23
2018-11-20T06:50:17.696Z,48.16
2018-11-20T06:51:17.701Z,49.70
2018-11-20T06:52:17.700Z,48.93
2018-11-20T06:53:17.763Z,49.70
2018-11-20T06:54:17.706Z,49.41
2018-11-20T06:55:17.714Z,50.37
2018-11-20T06:56:17.715Z,49.79
2018-11-20T06:57:17.740Z,49.73
2018-11-20T06:58:17.720Z,49.99
2018-11-20T06:59:17.746Z,49.53
2018-11-20T07:00:17.743Z,49.41
2018-11-20T07:01:17.752Z,49.70
2018-11-20T07:02:17.740Z,49.12
2018-11-20T07:03:17.743Z,49.60
2018-11-20T07:04:17.749Z,48.64
2018-11-20T07:05:17.769Z,48.54
2018-11-20T07:06:17.758Z,48.93
2018-11-20T07:07:17.892Z,48.54
2018-11-20T07:08:17.867Z,48.54
2018-11-20T07:09:17.776Z,48.44
2018-11-20T07:10:17.776Z,48.64
2018-11-20T07:11:17.877Z,48.25
2018-11-20T07:12:17.786Z,48.25
2018-11-20T07:13:17.780Z,47.87
2018-11-20T07:14:17.796Z,47.97
2018-11-20T07:15:17.954Z,48.16
2018-11-20T07:16:17.828Z,48.16
2018-11-20T07:17:17.806Z,48.25
2018-11-20T07:18:17.821Z,48.16
2018-11-20T07:19:17.835Z,48.64
2018-11-20T07:20:17.839Z,48.54
2018-11-20T07:21:17.842Z,48.16
2018-11-20T07:22:17.843Z,48.06
2018-11-20T07:23:17.849Z,47.67
2018-11-20T07:24:17.868Z,47.29
2018-11-20T07:25:17.859Z,47.80
2018-11-20T07:26:17.850Z,47.58
2018-11-20T07:27:17.959Z,47.67
2018-11-20T07:28:17.859Z,47.77
2018-11-20T07:29:17.884Z,47.77
2018-11-20T07:30:18.065Z,47.67
2018-11-20T07:31:17.983Z,48.25
2018-11-20T07:32:17.879Z,48.64
2018-11-20T07:33:17.889Z,48.54
2018-11-20T07:34:17.901Z,48.54
2018-11-20T07:35:18.005Z,48.57
2018-11-20T07:36:18.069Z,48.64
2018-11-20T07:37:18.085Z,48.16
2018-11-20T07:38:17.927Z,48.44
2018-11-20T07:39:17.920Z,48.54
2018-11-20T07:40:17.926Z,48.54
2018-11-20T07:41:17.922Z,48.44
2018-11-20T07:42:17.916Z,48.44
2018-11-20T07:43:18.031Z,48.35
2018-11-20T07:44:18.017Z,48.54
2018-11-20T07:45:17.953Z,48.16
2018-11-20T07:46:17.940Z,48.16
2018-11-20T07:47:17.949Z,48.06
2018-11-20T07:48:17.948Z,48.06
2018-11-20T07:49:18.054Z,47.67
2018-11-20T07:50:17.964Z,47.58
2018-11-20T07:51:17.960Z,47.87
2018-11-20T07:52:17.962Z,47.77
2018-11-20T07:53:17.990Z,47.67
2018-11-20T07:54:17.976Z,48.06
2018-11-20T07:55:18.015Z,48.06
2018-11-20T07:56:18.261Z,48.54
2018-11-20T07:57:17.990Z,48.64
2018-11-20T07:58:17.990Z,48.16
2018-11-20T07:59:18.010Z,49.02
2018-11-20T08:00:17.998Z,49.12
2018-11-20T08:01:18.028Z,48.64
2018-11-20T08:02:18.127Z,48.74
2018-11-20T08:03:18.025Z,48.64
2018-11-20T08:04:18.016Z,48.93
2018-11-20T08:05:18.017Z,48.83
2018-11-20T08:06:18.032Z,48.83
2018-11-20T08:07:18.032Z,48.93
2018-11-20T08:08:18.099Z,49.02
2018-11-20T08:09:18.051Z,49.32
2018-11-20T08:10:18.072Z,49.60
2018-11-20T08:11:18.048Z,49.12
2018-11-20T08:12:18.057Z,49.12
2018-11-20T08:13:18.063Z,48.74
2018-11-20T08:14:18.057Z,48.64
2018-11-20T08:15:18.087Z,49.12
2018-11-20T08:16:18.071Z,48.83
2018-11-20T08:17:18.080Z,48.25
2018-11-20T08:18:18.080Z,48.44
2018-11-20T08:19:18.081Z,48.64
2018-11-20T08:20:18.083Z,48.44
2018-11-20T08:21:18.094Z,48.44
2018-11-20T08:22:18.097Z,48.35
2018-11-20T08:23:18.111Z,48.54
2018-11-20T08:24:18.108Z,48.54
2018-11-20T08:25:18.120Z,48.54
2018-11-20T08:26:18.248Z,48.54
2018-11-20T08:27:18.121Z,48.64
2018-11-20T08:28:18.124Z,48.25
2018-11-20T08:29:18.131Z,48.16
2018-11-20T08:30:18.144Z,48.06
2018-11-20T08:31:18.134Z,48.06
2018-11-20T08:32:18.141Z,47.77
2018-11-20T08:33:18.154Z,47.97
2018-11-20T08:34:18.285Z,47.58
2018-11-20T08:35:18.271Z,47.67
2018-11-20T08:36:18.160Z,47.67
2018-11-20T08:37:18.193Z,47.97
2018-11-20T08:38:18.162Z,47.67
2018-11-20T08:39:18.175Z,47.19
2018-11-20T08:40:18.175Z,47.19
2018-11-20T08:41:18.181Z,47.67
2018-11-20T08:42:18.241Z,47.77
2018-11-20T08:43:18.190Z,47.77
2018-11-20T08:44:18.239Z,47.77
2018-11-20T08:45:18.198Z,47.67
2018-11-20T08:46:18.203Z,47.97
2018-11-20T08:47:18.210Z,47.87
2018-11-20T08:48:18.287Z,48.06
2018-11-20T08:49:18.213Z,48.06
2018-11-20T08:50:18.243Z,48.16
2018-11-20T08:51:18.218Z,47.87
2018-11-20T08:52:18.232Z,47.87
2018-11-20T08:53:18.242Z,47.97
2018-11-20T08:54:18.243Z,48.06
2018-11-20T08:55:18.250Z,48.16
2018-11-20T08:56:18.245Z,48.25
2018-11-20T08:57:18.253Z,48.25
2018-11-20T08:58:18.258Z,48.16
2018-11-20T08:59:18.260Z,48.06
2018-11-20T09:00:18.262Z,48.44
2018-11-20T09:01:18.264Z,48.06
2018-11-20T09:02:18.330Z,48.16
2018-11-20T09:03:18.461Z,48.16
2018-11-20T09:04:18.282Z,48.06
2018-11-20T09:05:18.286Z,48.25
2018-11-20T09:06:18.290Z,48.06
2018-11-20T09:07:18.307Z,48.25
2018-11-20T09:08:18.305Z,48.16
2018-11-20T09:09:18.308Z,48.06
2018-11-20T09:10:18.367Z,48.06
2018-11-20T09:11:18.310Z,48.06
2018-11-20T09:12:18.318Z,48.16
2018-11-20T09:13:18.333Z,48.16
2018-11-20T09:14:18.329Z,48.16
2018-11-20T09:15:18.330Z,48.06
2018-11-20T09:16:18.367Z,48.25
2018-11-20T09:17:18.338Z,48.25
2018-11-20T09:18:18.344Z,48.25
2018-11-20T09:19:18.344Z,48.16
2018-11-20T09:20:18.430Z,47.97
2018-11-20T09:21:18.437Z,47.58
2018-11-20T09:22:18.358Z,47.58
2018-11-20T09:23:18.359Z,47.39
2018-11-20T09:24:18.394Z,47.39
2018-11-20T09:25:18.368Z,47.19
2018-11-20T09:26:18.380Z,46.71
2018-11-20T09:27:18.378Z,46.52
2018-11-20T09:28:18.385Z,46.31
2018-11-20T09:29:18.390Z,46.50
2018-11-20T09:30:18.393Z,45.94
2018-11-20T09:31:18.405Z,46.04
2018-11-20T09:32:18.404Z,45.84
2018-11-20T09:33:18.406Z,45.34
2018-11-20T09:34:18.440Z,45.56
2018-11-20T09:35:18.552Z,45.17
2018-11-20T09:36:18.422Z,45.46
2018-11-20T09:37:18.424Z,45.56
2018-11-20T09:38:18.430Z,45.84
2018-11-20T09:39:18.438Z,45.73
2018-11-20T09:40:18.437Z,45.46
2018-11-20T09:41:18.450Z,45.65
2018-11-20T09:42:18.442Z,45.36
2018-11-20T09:43:18.455Z,45.75
2018-11-20T09:44:18.455Z,45.46
2018-11-20T09:45:18.460Z,45.36
2018-11-20T09:46:18.461Z,45.65
2018-11-20T09:47:18.466Z,45.75
2018-11-20T09:48:18.472Z,45.46
2018-11-20T09:49:18.477Z,45.17
2018-11-20T09:50:18.482Z,45.56
2018-11-20T09:51:18.490Z,45.07
2018-11-20T09:52:18.778Z,45.27
2018-11-20T09:53:18.500Z,45.17
2018-11-20T09:54:18.553Z,45.07
2018-11-20T09:55:18.517Z,45.27
2018-11-20T09:56:18.502Z,44.79
2018-11-20T09:57:18.513Z,45.46
2018-11-20T09:58:18.519Z,45.27
2018-11-20T09:59:18.623Z,44.98
2018-11-20T10:00:18.521Z,45.17
2018-11-20T10:01:18.534Z,45.07
2018-11-20T10:02:18.528Z,45.27
2018-11-20T10:03:18.537Z,45.36
2018-11-20T10:04:18.537Z,45.36
2018-11-20T10:05:18.549Z,45.27
2018-11-20T10:06:18.551Z,45.65
2018-11-20T10:07:18.595Z,45.56
2018-11-20T10:08:18.559Z,45.75
2018-11-20T10:09:18.566Z,45.65
2018-11-20T10:10:18.569Z,45.84
2018-11-20T10:11:18.574Z,45.65
2018-11-20T10:12:18.579Z,45.65
2018-11-20T10:13:18.586Z,45.36
2018-11-20T10:14:18.644Z,45.65
2018-11-20T10:15:18.717Z,45.84
2018-11-20T10:16:18.582Z,45.84
2018-11-20T10:17:18.610Z,45.84
2018-11-20T10:18:18.604Z,46.04
2018-11-20T10:19:18.603Z,46.62
2018-11-20T10:20:18.621Z,46.71
2018-11-20T10:21:18.629Z,46.33
2018-11-20T10:22:18.616Z,46.42
2018-11-20T10:23:18.629Z,46.33
2018-11-20T10:24:18.623Z,46.42
2018-11-20T10:25:18.703Z,46.23
2018-11-20T10:26:18.668Z,46.33
2018-11-20T10:27:18.643Z,46.42
2018-11-20T10:28:18.645Z,46.33
2018-11-20T10:29:18.658Z,46.23
2018-11-20T10:30:18.652Z,46.52
2018-11-20T10:31:18.660Z,46.42
2018-11-20T10:32:18.659Z,46.42
2018-11-20T10:33:18.668Z,46.42
2018-11-20T10:34:18.753Z,46.71
2018-11-20T10:35:18.682Z,46.71
2018-11-20T10:36:18.685Z,46.62
2018-11-20T10:37:18.689Z,46.71
2018-11-20T10:38:18.689Z,46.71
2018-11-20T10:39:18.707Z,46.42
2018-11-20T10:40:18.733Z,46.23
2018-11-20T10:41:18.702Z,47.00
2018-11-20T10:42:18.709Z,46.81
2018-11-20T10:43:18.719Z,46.62
2018-11-20T10:44:18.730Z,46.93
2018-11-20T10:45:18.760Z,46.71
2018-11-20T10:46:18.855Z,47.00
2018-11-20T10:47:18.726Z,46.91
2018-11-20T10:48:18.733Z,46.62
2018-11-20T10:49:18.737Z,47.00
2018-11-20T10:50:18.744Z,47.00
2018-11-20T10:51:18.749Z,46.91
2018-11-20T10:52:18.793Z,46.91
2018-11-20T10:53:18.756Z,47.00
2018-11-20T10:54:18.757Z,46.52
2018-11-20T10:55:18.766Z,46.62
2018-11-20T10:56:18.772Z,46.71
2018-11-20T10:57:18.773Z,46.62
2018-11-20T10:58:18.785Z,46.71
2018-11-20T10:59:18.785Z,46.91
2018-11-20T11:00:18.785Z,46.71
2018-11-20T11:01:18.799Z,46.71
2018-11-20T11:02:18.801Z,46.71
2018-11-20T11:03:18.809Z,46.62
2018-11-20T11:04:18.865Z,46.62
2018-11-20T11:05:18.809Z,47.00
2018-11-20T11:06:18.892Z,47.10
2018-11-20T11:07:18.892Z,47.19
2018-11-20T11:08:18.825Z,46.91
2018-11-20T11:09:18.829Z,47.19
2018-11-20T11:10:18.831Z,47.19
2018-11-20T11:11:18.850Z,46.91
2018-11-20T11:12:18.860Z,47.19
2018-11-20T11:13:18.843Z,47.00
2018-11-20T11:14:18.853Z,47.19
2018-11-20T11:15:18.857Z,47.29
2018-11-20T11:16:18.863Z,47.19
2018-11-20T11:17:18.871Z,47.29
2018-11-20T11:18:18.881Z,46.91
2018-11-20T11:19:18.883Z,47.19
2018-11-20T11:20:18.900Z,47.10
2018-11-20T11:21:18.886Z,47.00
2018-11-20T11:22:18.888Z,47.10
2018-11-20T11:23:18.890Z,47.19
2018-11-20T11:24:18.906Z,47.49
2018-11-20T11:25:18.899Z,47.49
2018-11-20T11:26:18.916Z,47.29
2018-11-20T11:27:18.910Z,47.29
2018-11-20T11:28:18.915Z,47.49
2018-11-20T11:29:18.919Z,47.49
2018-11-20T11:30:18.923Z,47.77
2018-11-20T11:31:18.930Z,47.67
2018-11-20T11:32:18.928Z,47.39
2018-11-20T11:33:24.119Z,47.29
2018-11-20T11:34:18.937Z,47.77
2018-11-20T11:35:18.947Z,47.67
2018-11-20T11:36:18.944Z,47.39
2018-11-20T11:37:18.952Z,47.39
2018-11-20T11:38:18.965Z,46.91
2018-11-20T11:39:18.964Z,46.81
2018-11-20T11:40:18.993Z,46.33
2018-11-20T11:41:18.970Z,46.42
2018-11-20T11:42:18.976Z,46.42
2018-11-20T11:43:18.978Z,46.62
2018-11-20T11:44:18.984Z,46.52
2018-11-20T11:45:18.978Z,46.04
2018-11-20T11:46:18.994Z,45.94
2018-11-20T11:47:19.000Z,45.65
2018-11-20T11:48:19.002Z,45.75
2018-11-20T11:49:19.000Z,45.94
2018-11-20T11:50:19.010Z,45.75
2018-11-20T11:51:19.016Z,45.75
2018-11-20T11:52:19.018Z,45.75
2018-11-20T11:53:19.023Z,45.36
2018-11-20T11:54:19.025Z,45.46
2018-11-20T11:55:19.031Z,45.65
2018-11-20T11:56:19.047Z,45.56
2018-11-20T11:57:19.040Z,45.75
2018-11-20T11:58:19.047Z,46.04
2018-11-20T11:59:19.048Z,45.75
2018-11-20T12:00:19.052Z,45.65
2018-11-20T12:01:19.058Z,45.94
2018-11-20T12:03:19.068Z,46.04
2018-11-20T12:04:19.082Z,46.14
2018-11-20T12:05:19.078Z,45.94
2018-11-20T12:06:19.074Z,46.23
2018-11-20T12:07:19.085Z,45.75
2018-11-20T12:08:19.102Z,46.71
2018-11-20T12:09:19.095Z,46.33
2018-11-20T12:10:19.101Z,46.42
2018-11-20T12:11:19.106Z,46.62
2018-11-20T12:12:19.104Z,45.94
2018-11-20T12:13:40.117Z,44.59
2018-11-20T12:14:19.123Z,43.32
2018-11-20T12:15:19.119Z,42.93
2018-11-20T12:16:19.125Z,42.26
2018-11-20T12:17:19.133Z,42.55
2018-11-20T12:18:19.132Z,41.20
2018-11-20T12:19:19.134Z,40.24
2018-11-20T12:20:19.143Z,39.95
2018-11-20T12:21:19.154Z,40.14
2018-11-20T12:22:19.149Z,40.34
2018-11-20T12:23:19.155Z,40.72
2018-11-20T12:24:19.170Z,41.01
2018-11-20T12:25:19.165Z,40.81
2018-11-20T12:26:19.154Z,41.20
2018-11-20T12:27:20.329Z,41.20
2018-11-20T12:28:19.174Z,41.59
2018-11-20T12:29:19.181Z,41.59
2018-11-20T12:30:19.185Z,41.61
2018-11-20T12:31:19.188Z,41.89
2018-11-20T12:32:19.192Z,41.61
2018-11-20T12:33:19.190Z,41.80
2018-11-20T12:34:19.208Z,42.19
2018-11-20T12:35:19.204Z,41.99
2018-11-20T12:36:19.221Z,41.99
2018-11-20T12:37:19.214Z,41.63
2018-11-20T12:38:19.658Z,42.02
2018-11-20T12:39:19.885Z,41.63
2018-11-20T12:40:19.227Z,41.44
2018-11-20T12:41:19.235Z,41.34
2018-11-20T12:42:19.229Z,40.86
2018-11-20T12:43:19.237Z,41.14
2018-11-20T12:44:20.199Z,41.05
2018-11-20T12:45:19.247Z,40.78
2018-11-20T12:46:19.250Z,41.14
2018-11-20T12:47:19.256Z,41.27
2018-11-20T12:48:19.261Z,40.88
2018-11-20T12:49:19.267Z,41.17
2018-11-20T12:50:19.266Z,41.36
2018-11-20T12:51:19.276Z,41.17
2018-11-20T12:52:19.276Z,40.97
2018-11-20T12:53:21.330Z,40.88